createdAt,value
2022-11-13T00:01:20.871Z,40.50
2022-11-13T00:03:49.775Z,47.88
2022-11-13T00:06:20.058Z,48.58
2022-11-13T00:08:49.136Z,39.60
2022-11-13T00:11:20.762Z,52.17
2022-11-13T00:13:50.097Z,39.88
2022-11-13T00:16:20.269Z,32.63
2022-11-13T00:18:49.392Z,32.25
2022-11-13T00:21:19.851Z,32.60
2022-11-13T00:23:47.922Z,29.55
2022-11-13T00:26:19.306Z,42.00
2022-11-13T00:28:47.854Z,31.27
2022-11-13T00:31:17.064Z,39.65
2022-11-13T00:34:09.102Z,45.45
2022-11-13T00:36:33.445Z,41.78
2022-11-13T00:39:01.617Z,43.20
2022-11-13T00:41:31.089Z,43.42
2022-11-13T00:43:59.350Z,47.30
2022-11-13T00:46:27.664Z,48.03
2022-11-13T00:48:55.868Z,51.25
2022-11-13T00:51:24.913Z,48.13
2022-11-13T00:53:53.136Z,46.80
2022-11-13T00:56:21.414Z,45.72
2022-11-13T00:58:51.253Z,49.47
2022-11-13T01:01:21.358Z,41.22
2022-11-13T01:03:49.649Z,39.67
2022-11-13T01:06:21.359Z,80.65
2022-11-13T01:08:49.830Z,56.95
2022-11-13T01:11:20.591Z,52.10
2022-11-13T01:13:52.221Z,40.53
2022-11-13T01:16:24.042Z,41.72
2022-11-13T01:18:56.379Z,46.05
2022-11-13T01:21:27.336Z,45.03
2022-11-13T01:23:56.289Z,44.25
2022-11-13T01:26:26.358Z,58.65
2022-11-13T01:28:56.866Z,44.70
2022-11-13T01:31:28.159Z,42.30
2022-11-13T01:33:57.210Z,37.00
2022-11-13T01:36:27.411Z,38.40
2022-11-13T01:38:55.925Z,34.83
2022-11-13T01:41:26.946Z,34.22
2022-11-13T01:43:58.323Z,37.35
2022-11-13T01:46:29.131Z,59.17
2022-11-13T01:49:03.438Z,103.43
2022-11-13T01:51:35.237Z,40.72
2022-11-13T01:54:07.472Z,118.70
2022-11-13T01:56:35.774Z,115.28
2022-11-13T01:59:09.816Z,33.05
2022-11-13T02:01:38.121Z,65.80
2022-11-13T02:04:06.473Z,30.05
2022-11-13T02:06:42.281Z,45.28
2022-11-13T02:09:12.342Z,36.65
2022-11-13T02:11:41.298Z,153.38
2022-11-13T02:14:12.908Z,129.32
2022-11-13T02:16:43.569Z,87.28
2022-11-13T02:19:19.171Z,49.92
2022-11-13T02:21:54.645Z,165.07
2022-11-13T02:24:28.239Z,57.65
2022-11-13T02:27:00.009Z,70.95
2022-11-13T02:29:28.254Z,45.00
2022-11-13T02:31:56.935Z,78.70
2022-11-13T02:34:25.430Z,41.60
2022-11-13T02:36:53.694Z,33.40
2022-11-13T02:39:21.920Z,18.73
2022-11-13T02:41:51.428Z,27.27
2022-11-13T02:44:19.658Z,20.15
2022-11-13T02:46:48.027Z,45.20
2022-11-13T02:49:16.153Z,53.65
2022-11-13T02:51:44.285Z,59.42
2022-11-13T02:54:16.742Z,67.88
2022-11-13T02:56:45.532Z,49.83
2022-11-13T02:59:15.176Z,32.67
2022-11-13T03:01:43.413Z,35.63
2022-11-13T03:04:11.801Z,37.97
2022-11-13T03:06:40.187Z,39.90
2022-11-13T03:09:08.402Z,37.35
2022-11-13T03:11:36.584Z,41.55
2022-11-13T03:14:04.850Z,38.78
2022-11-13T03:16:35.718Z,39.38
2022-11-13T03:19:04.622Z,49.03
2022-11-13T03:21:33.281Z,35.78
2022-11-13T03:24:01.384Z,45.00
2022-11-13T03:26:29.592Z,54.08
2022-11-13T03:28:58.074Z,142.38
2022-11-13T03:31:26.266Z,146.27
2022-11-13T03:33:55.943Z,86.25
2022-11-13T03:36:24.191Z,87.28
2022-11-13T03:38:52.524Z,58.80
2022-11-13T03:41:22.463Z,50.08
2022-11-13T03:43:50.776Z,42.90
2022-11-13T03:46:19.026Z,90.65
2022-11-13T03:48:47.371Z,31.20
2022-11-13T03:51:17.083Z,33.30
2022-11-13T03:53:45.192Z,29.65
2022-11-13T03:56:13.467Z,29.60
2022-11-13T03:58:45.802Z,27.20
2022-11-13T04:01:17.069Z,34.15
2022-11-13T04:03:45.334Z,42.08
2022-11-13T04:06:14.531Z,54.88
2022-11-13T04:08:44.121Z,88.22
2022-11-13T04:11:14.152Z,64.20
2022-11-13T04:13:42.247Z,91.70
2022-11-13T04:16:10.520Z,40.35
2022-11-13T04:18:38.771Z,49.90
2022-11-13T04:21:07.474Z,66.25
2022-11-13T04:23:35.645Z,63.85
2022-11-13T04:26:05.599Z,60.80
2022-11-13T04:28:33.739Z,34.00
2022-11-13T04:31:01.905Z,51.00
2022-11-13T04:33:30.057Z,41.80
2022-11-13T04:35:58.230Z,36.67
2022-11-13T04:38:26.692Z,79.45
2022-11-13T04:41:15.506Z,89.45
2022-11-13T04:43:44.045Z,76.72
2022-11-13T04:46:12.151Z,130.35
2022-11-13T04:48:40.354Z,37.60
2022-11-13T04:51:08.634Z,34.38
2022-11-13T04:53:36.833Z,124.55
2022-11-13T04:56:05.486Z,52.15
2022-11-13T04:58:33.761Z,41.85
2022-11-13T05:01:04.132Z,47.55
2022-11-13T05:03:32.318Z,73.95
2022-11-13T05:06:05.006Z,170.50
2022-11-13T05:08:33.211Z,89.78
2022-11-13T05:11:01.803Z,75.60
2022-11-13T05:13:32.433Z,44.22
2022-11-13T05:16:07.003Z,31.52
2022-11-13T05:18:35.952Z,39.25
2022-11-13T05:21:04.704Z,41.83
2022-11-13T05:23:33.796Z,133.68
2022-11-13T05:26:07.021Z,153.32
2022-11-13T05:28:35.614Z,292.45
2022-11-13T05:31:10.824Z,99.63
2022-11-13T05:33:40.428Z,109.72
2022-11-13T05:36:11.255Z,42.33
2022-11-13T05:38:40.042Z,51.65
2022-11-13T05:41:09.900Z,38.85
2022-11-13T05:43:39.065Z,34.65
2022-11-13T05:46:11.302Z,32.13
2022-11-13T05:48:40.139Z,29.55
2022-11-13T05:51:10.848Z,26.17
2022-11-13T05:53:42.234Z,25.77
2022-11-13T05:56:13.179Z,30.23
2022-11-13T05:58:43.037Z,26.60
2022-11-13T06:01:16.608Z,45.03
2022-11-13T06:03:45.743Z,44.15
2022-11-13T06:06:16.347Z,32.53
2022-11-13T06:08:45.128Z,32.60
2022-11-13T06:11:14.810Z,71.05
2022-11-13T06:13:43.389Z,36.75
2022-11-13T06:16:14.229Z,80.20
2022-11-13T06:18:43.745Z,60.53
2022-11-13T06:21:14.773Z,52.25
2022-11-13T06:23:43.287Z,41.30
2022-11-13T06:26:14.459Z,38.78
2022-11-13T06:28:42.898Z,38.05
2022-11-13T06:31:14.563Z,39.17
2022-11-13T06:33:44.039Z,34.60
2022-11-13T06:36:13.990Z,32.50
2022-11-13T06:38:43.034Z,41.78
2022-11-13T06:41:12.828Z,57.80
2022-11-13T06:43:41.317Z,31.17
2022-11-13T06:46:13.826Z,60.70
2022-11-13T06:48:42.138Z,44.53
2022-11-13T06:51:15.727Z,53.47
2022-11-13T06:53:44.545Z,46.78
2022-11-13T06:56:13.107Z,143.40
2022-11-13T06:58:41.717Z,49.15
2022-11-13T07:01:11.152Z,62.10
2022-11-13T07:03:41.435Z,40.65
2022-11-13T07:06:14.150Z,49.22
2022-11-13T07:08:42.630Z,39.15
2022-11-13T07:11:12.716Z,28.85
2022-11-13T07:13:41.349Z,32.10
2022-11-13T07:16:16.861Z,30.95
2022-11-13T07:18:51.583Z,28.85
2022-11-13T07:21:20.219Z,30.40
2022-11-13T07:23:49.918Z,27.02
2022-11-13T07:26:18.782Z,26.38
2022-11-13T07:28:47.484Z,28.40
2022-11-13T07:31:16.857Z,29.60
2022-11-13T07:33:48.739Z,28.05
2022-11-13T07:36:17.368Z,21.35
2022-11-13T07:38:45.614Z,18.38
2022-11-13T07:41:13.870Z,17.20
2022-11-13T07:43:42.037Z,18.27
2022-11-13T07:46:10.222Z,18.25
2022-11-13T07:48:38.395Z,17.27
2022-11-13T07:51:07.963Z,14.65
2022-11-13T07:53:39.005Z,13.93
2022-11-13T07:56:08.004Z,13.32
2022-11-13T07:58:36.205Z,13.85
2022-11-13T08:01:05.262Z,12.13
2022-11-13T08:03:34.098Z,13.88
2022-11-13T08:06:03.750Z,13.30
2022-11-13T08:08:33.270Z,16.27
2022-11-13T08:11:05.109Z,15.00
2022-11-13T08:13:34.233Z,16.98
2022-11-13T08:16:03.900Z,14.27
2022-11-13T08:18:32.664Z,16.35
2022-11-13T08:21:03.575Z,16.40
2022-11-13T08:23:33.674Z,14.90
2022-11-13T08:26:06.113Z,14.65
2022-11-13T08:28:35.216Z,13.50
2022-11-13T08:31:04.469Z,12.25
2022-11-13T08:33:32.817Z,12.10
2022-11-13T08:36:01.905Z,12.45
2022-11-13T08:38:30.309Z,14.30
2022-11-13T08:41:05.736Z,13.32
2022-11-13T08:43:36.835Z,11.90
2022-11-13T08:46:05.162Z,12.02
2022-11-13T08:48:33.426Z,13.10
2022-11-13T08:51:01.853Z,11.90
2022-11-13T08:53:30.299Z,12.45
2022-11-13T08:56:03.254Z,11.45
2022-11-13T08:58:31.775Z,12.43
2022-11-13T09:01:03.484Z,11.93
2022-11-13T09:03:31.884Z,13.23
2022-11-13T09:06:00.044Z,13.15
2022-11-13T09:08:28.339Z,12.20
2022-11-13T09:10:56.963Z,11.50
2022-11-13T09:13:26.395Z,13.32
2022-11-13T09:15:54.492Z,12.45
2022-11-13T09:18:22.988Z,15.65
2022-11-13T09:20:51.142Z,14.45
2022-11-13T09:23:19.883Z,14.40
2022-11-13T09:25:48.665Z,15.30
2022-11-13T09:28:16.733Z,13.63
2022-11-13T09:30:46.287Z,13.50
2022-11-13T09:33:15.813Z,12.77
2022-11-13T09:35:44.629Z,12.93
2022-11-13T09:38:14.686Z,12.60
2022-11-13T09:40:47.314Z,15.68
2022-11-13T09:43:30.715Z,12.98
2022-11-13T09:46:05.773Z,14.13
2022-11-13T09:48:38.000Z,12.43
2022-11-13T09:51:12.065Z,13.43
2022-11-13T09:53:41.863Z,13.60
2022-11-13T09:56:26.370Z,13.27
2022-11-13T09:59:02.176Z,13.55
2022-11-13T10:01:43.532Z,11.27
2022-11-13T10:04:17.239Z,11.77
2022-11-13T10:09:31.025Z,13.05
2022-11-13T10:12:03.501Z,12.20
2022-11-13T10:14:36.815Z,11.35
2022-11-13T10:17:18.282Z,13.00
2022-11-13T10:19:54.810Z,11.48
2022-11-13T10:22:33.414Z,12.13
2022-11-13T10:25:11.799Z,12.55
2022-11-13T10:27:40.266Z,12.10
2022-11-13T10:30:15.599Z,10.90
2022-11-13T10:32:47.617Z,13.02
2022-11-13T10:35:32.996Z,10.70
2022-11-13T10:38:08.492Z,13.13
2022-11-13T10:40:39.727Z,12.15
2022-11-13T10:43:15.606Z,12.68
2022-11-13T10:45:54.212Z,12.88
2022-11-13T10:48:30.390Z,11.27
2022-11-13T10:51:01.998Z,13.23
2022-11-13T10:53:40.241Z,11.75
2022-11-13T10:56:22.667Z,12.70
2022-11-13T10:59:04.388Z,12.70
2022-11-13T11:01:32.533Z,11.82
2022-11-13T11:04:05.101Z,12.73
2022-11-13T11:07:17.939Z,12.35
2022-11-13T11:09:27.336Z,11.98
2022-11-13T11:12:17.323Z,13.63
2022-11-13T11:15:04.746Z,11.85
2022-11-13T11:17:44.110Z,12.38
2022-11-13T11:20:26.970Z,14.43
2022-11-13T11:23:02.289Z,14.35
2022-11-13T11:25:38.861Z,14.55
2022-11-13T11:28:13.659Z,12.93
2022-11-13T11:30:46.831Z,14.05
2022-11-13T11:33:21.538Z,12.38
2022-11-13T11:35:55.101Z,14.48
2022-11-13T11:41:04.794Z,13.07
2022-11-13T11:43:42.783Z,11.88
2022-11-13T11:46:13.542Z,9.98
2022-11-13T11:48:41.858Z,10.00
2022-11-13T11:51:21.133Z,8.98
2022-11-13T11:53:58.846Z,9.68
2022-11-13T11:56:34.210Z,9.18
2022-11-13T11:59:36.389Z,9.35
2022-11-13T12:02:36.242Z,10.10
2022-11-13T12:05:20.349Z,10.43
2022-11-13T12:08:00.353Z,9.15
2022-11-13T12:10:38.090Z,8.50
2022-11-13T12:13:21.314Z,9.02
2022-11-13T12:15:56.043Z,9.90
2022-11-13T12:18:36.491Z,9.15
2022-11-13T12:21:22.390Z,11.88
2022-11-13T12:24:13.269Z,8.70
2022-11-13T12:26:50.725Z,10.32
2022-11-13T12:29:30.734Z,10.10
2022-11-13T12:32:10.003Z,9.30
2022-11-13T12:34:42.519Z,10.35
2022-11-13T12:37:14.692Z,11.50
2022-11-13T12:39:52.780Z,9.30
2022-11-13T12:42:29.568Z,9.82
2022-11-13T12:45:06.787Z,9.52
2022-11-13T12:47:36.201Z,11.77
2022-11-13T12:50:08.026Z,9.75
2022-11-13T12:52:36.235Z,10.80
2022-11-13T12:55:25.961Z,10.10
2022-11-13T12:57:54.410Z,11.10
2022-11-13T13:00:26.762Z,9.38
2022-11-13T13:03:17.827Z,13.35
2022-11-13T13:06:09.351Z,10.57
2022-11-13T13:09:05.030Z,11.20
2022-11-13T13:11:41.570Z,10.98
2022-11-13T13:14:27.742Z,11.40
2022-11-13T13:17:06.828Z,10.57
2022-11-13T13:19:35.361Z,11.25
2022-11-13T13:22:03.865Z,10.57
2022-11-13T13:24:35.233Z,11.65
2022-11-13T13:27:23.520Z,11.13
2022-11-13T13:29:51.712Z,13.45
2022-11-13T13:32:26.069Z,10.38
2022-11-13T13:35:04.399Z,11.70
2022-11-13T13:37:43.531Z,11.18
2022-11-13T13:40:25.823Z,13.75
2022-11-13T13:43:10.809Z,11.73
2022-11-13T13:45:48.108Z,11.55
2022-11-13T13:48:20.511Z,11.40
2022-11-13T13:50:50.927Z,12.30
2022-11-13T13:53:24.687Z,11.75
2022-11-13T13:55:55.670Z,11.13
2022-11-13T13:58:29.969Z,12.98
2022-11-13T14:01:17.636Z,12.38
2022-11-13T14:03:46.886Z,12.02
2022-11-13T14:06:23.056Z,14.93
2022-11-13T14:08:51.338Z,11.60
2022-11-13T14:11:21.998Z,14.13
2022-11-13T14:13:51.916Z,13.45
2022-11-13T14:16:20.117Z,13.18
2022-11-13T14:18:48.592Z,12.38
2022-11-13T14:21:19.798Z,13.18
2022-11-13T14:23:51.124Z,12.45
2022-11-13T14:26:21.310Z,12.40
2022-11-13T14:28:56.212Z,13.02
2022-11-13T14:31:30.098Z,13.00
2022-11-13T14:34:01.813Z,12.57
2022-11-13T14:36:34.143Z,10.88
2022-11-13T14:39:02.800Z,10.73
2022-11-13T14:41:37.788Z,12.35
2022-11-13T14:44:07.454Z,11.82
2022-11-13T14:46:37.149Z,12.98
2022-11-13T14:49:12.641Z,11.73
2022-11-13T14:51:41.315Z,12.77
2022-11-13T14:54:46.927Z,12.50
2022-11-13T14:57:18.044Z,11.75
2022-11-13T14:59:47.783Z,12.55
2022-11-13T15:02:16.016Z,11.32
2022-11-13T15:04:44.306Z,12.05
2022-11-13T15:07:29.578Z,11.07
2022-11-13T15:09:58.473Z,12.52
2022-11-13T15:12:27.140Z,11.88
2022-11-13T15:14:56.930Z,12.52
2022-11-13T15:17:26.390Z,13.70
2022-11-13T15:19:56.098Z,14.80
2022-11-13T15:22:27.620Z,62.97
2022-11-13T15:24:56.723Z,49.33
2022-11-13T15:27:24.845Z,33.80
2022-11-13T15:29:53.072Z,23.20
2022-11-13T15:32:23.155Z,19.88
2022-11-13T15:34:51.266Z,16.00
2022-11-13T15:37:19.597Z,14.23
2022-11-13T15:39:48.178Z,15.18
2022-11-13T15:42:18.972Z,12.85
2022-11-13T15:44:47.482Z,14.40
2022-11-13T15:47:31.488Z,13.68
2022-11-13T15:52:47.065Z,16.67
2022-11-13T15:55:22.135Z,15.50
2022-11-13T15:57:50.976Z,14.48
2022-11-13T16:00:24.988Z,13.73
2022-11-13T16:02:56.247Z,14.35
2022-11-13T16:05:25.912Z,15.50
2022-11-13T16:07:54.694Z,17.35
2022-11-13T16:10:25.143Z,15.25
2022-11-13T16:12:54.190Z,18.00
2022-11-13T16:15:24.467Z,14.40
2022-11-13T16:17:56.798Z,16.90
2022-11-13T16:20:25.406Z,16.35
2022-11-13T16:22:53.741Z,16.75
2022-11-13T16:25:23.703Z,16.42
2022-11-13T16:27:52.791Z,17.25
2022-11-13T16:30:22.977Z,21.38
2022-11-13T16:32:51.350Z,22.60
2022-11-13T16:35:21.720Z,31.52
2022-11-13T16:37:49.923Z,29.05
2022-11-13T16:40:22.574Z,26.40
2022-11-13T16:42:51.651Z,23.05
2022-11-13T16:45:20.746Z,22.88
2022-11-13T16:47:50.856Z,21.83
2022-11-13T16:50:23.771Z,22.00
2022-11-13T16:52:52.620Z,23.08
2022-11-13T16:55:20.792Z,24.25
2022-11-13T16:57:48.942Z,25.15
2022-11-13T17:00:19.840Z,25.55
2022-11-13T17:02:51.559Z,23.95
2022-11-13T17:05:22.900Z,25.92
2022-11-13T17:07:52.006Z,24.25
2022-11-13T17:10:36.831Z,23.83
2022-11-13T17:13:05.305Z,25.63
2022-11-13T17:15:33.537Z,25.65
2022-11-13T17:18:02.106Z,25.25
2022-11-13T17:20:31.725Z,24.02
2022-11-13T17:23:00.056Z,24.10
2022-11-13T17:25:28.239Z,22.85
2022-11-13T17:27:56.484Z,27.98
2022-11-13T17:30:24.867Z,29.05
2022-11-13T17:32:53.013Z,26.88
2022-11-13T17:35:21.232Z,29.05
2022-11-13T17:37:50.875Z,29.55
2022-11-13T17:40:19.201Z,29.17
2022-11-13T17:42:49.672Z,27.10
2022-11-13T17:45:17.938Z,29.05
2022-11-13T17:47:46.122Z,25.23
2022-11-13T17:50:15.292Z,24.55
2022-11-13T17:52:43.538Z,38.53
2022-11-13T17:55:14.115Z,58.97
2022-11-13T17:57:42.560Z,39.17
2022-11-13T18:00:11.909Z,47.80
2022-11-13T18:02:40.461Z,36.65
2022-11-13T18:05:10.114Z,35.10
2022-11-13T18:07:40.087Z,31.73
2022-11-13T18:10:11.067Z,27.60
2022-11-13T18:12:40.648Z,26.38
2022-11-13T18:15:12.034Z,25.27
2022-11-13T18:17:40.229Z,20.90
2022-11-13T18:20:09.843Z,22.80
2022-11-13T18:22:38.074Z,21.55
2022-11-13T18:25:06.964Z,22.23
2022-11-13T18:27:35.083Z,23.05
2022-11-13T18:30:04.804Z,21.65
2022-11-13T18:32:32.996Z,23.70
2022-11-13T18:35:01.065Z,25.85
2022-11-13T18:37:29.306Z,25.38
2022-11-13T18:39:58.877Z,31.08
2022-11-13T18:42:27.051Z,29.67
2022-11-13T18:44:55.889Z,32.42
2022-11-13T18:47:25.391Z,31.73
2022-11-13T18:49:53.949Z,28.35
2022-11-13T18:52:22.196Z,32.85
2022-11-13T18:54:50.991Z,30.42
2022-11-13T18:57:19.443Z,31.23
2022-11-13T18:59:47.714Z,29.63
2022-11-13T19:02:15.877Z,32.15
2022-11-13T19:04:45.766Z,28.38
2022-11-13T19:07:13.962Z,30.52
2022-11-13T19:09:45.998Z,25.55
2022-11-13T19:12:14.451Z,29.08
2022-11-13T19:14:42.692Z,34.53
2022-11-13T19:17:10.908Z,42.08
2022-11-13T19:19:41.942Z,37.75
2022-11-13T19:22:11.510Z,33.25
2022-11-13T19:24:39.705Z,40.67
2022-11-13T19:27:07.898Z,37.25
2022-11-13T19:29:36.068Z,35.38
2022-11-13T19:32:04.552Z,33.40
2022-11-13T19:34:32.977Z,29.15
2022-11-13T19:37:01.174Z,32.50
2022-11-13T19:39:30.826Z,29.95
2022-11-13T19:41:59.033Z,28.73
2022-11-13T19:44:28.041Z,27.42
2022-11-13T19:46:57.362Z,22.95
2022-11-13T19:49:25.645Z,26.42
2022-11-13T19:51:55.057Z,26.08
2022-11-13T19:54:23.283Z,27.45
2022-11-13T19:56:52.906Z,25.42
2022-11-13T19:59:22.055Z,25.92
2022-11-13T20:01:50.479Z,28.83
2022-11-13T20:04:18.886Z,34.25
2022-11-13T20:06:47.108Z,30.67
2022-11-13T20:09:15.468Z,30.00
2022-11-13T20:11:45.246Z,29.45
2022-11-13T20:14:15.055Z,29.75
2022-11-13T20:16:43.350Z,26.33
2022-11-13T20:19:11.577Z,27.27
2022-11-13T20:21:40.892Z,26.92
2022-11-13T20:24:11.545Z,28.73
2022-11-13T20:26:39.856Z,35.33
2022-11-13T20:29:07.950Z,30.92
2022-11-13T20:31:37.570Z,33.47
2022-11-13T20:34:05.936Z,34.92
2022-11-13T20:36:34.080Z,32.70
2022-11-13T20:39:06.870Z,33.35
2022-11-13T20:41:37.756Z,33.55
2022-11-13T20:44:06.334Z,35.90
2022-11-13T20:46:34.523Z,37.67
2022-11-13T20:49:04.429Z,33.03
2022-11-13T20:51:32.841Z,47.45
2022-11-13T20:54:01.279Z,37.30
2022-11-13T20:56:29.428Z,41.67
2022-11-13T20:58:57.774Z,40.35
2022-11-13T21:01:27.327Z,54.30
2022-11-13T21:03:56.158Z,44.25
2022-11-13T21:06:26.346Z,45.88
2022-11-13T21:08:56.362Z,41.97
2022-11-13T21:11:26.623Z,41.10
2022-11-13T21:13:56.658Z,43.00
2022-11-13T21:16:24.981Z,43.60
2022-11-13T21:18:53.497Z,42.65
2022-11-13T21:21:23.055Z,42.55
2022-11-13T21:23:52.622Z,39.83
2022-11-13T21:26:21.239Z,39.60
2022-11-13T21:28:49.371Z,38.50
2022-11-13T21:31:20.158Z,38.03
2022-11-13T21:33:50.150Z,38.22
2022-11-13T21:36:20.149Z,38.15
2022-11-13T21:38:50.755Z,35.33
2022-11-13T21:41:25.034Z,34.53
2022-11-13T21:43:56.841Z,38.70
2022-11-13T21:46:27.451Z,32.85
2022-11-13T21:49:00.212Z,31.05
2022-11-13T21:51:28.641Z,30.90
2022-11-13T21:53:57.151Z,32.17
2022-11-13T21:56:27.998Z,37.08
2022-11-13T21:58:57.028Z,40.13
2022-11-13T22:01:26.246Z,38.47
2022-11-13T22:03:54.797Z,35.97
2022-11-13T22:06:25.521Z,40.78
2022-11-13T22:08:58.146Z,33.83
2022-11-13T22:11:29.704Z,32.50
2022-11-13T22:13:58.307Z,35.47
2022-11-13T22:16:27.896Z,40.22
2022-11-13T22:18:56.787Z,40.78
2022-11-13T22:21:26.956Z,40.17
2022-11-13T22:23:55.628Z,40.58
2022-11-13T22:26:25.990Z,43.85
2022-11-13T22:28:56.640Z,39.67
2022-11-13T22:31:25.930Z,41.90
2022-11-13T22:33:55.410Z,38.40
2022-11-13T22:36:25.570Z,34.25
2022-11-13T22:38:54.298Z,40.08
2022-11-13T22:41:24.672Z,41.20
2022-11-13T22:43:56.287Z,43.47
2022-11-13T22:46:27.065Z,38.28
2022-11-13T22:48:56.625Z,39.92
2022-11-13T22:51:26.241Z,37.88
2022-11-13T22:53:56.396Z,35.67
2022-11-13T22:56:26.298Z,33.08
2022-11-13T22:58:57.573Z,39.55
2022-11-13T23:01:27.483Z,36.83
2022-11-13T23:03:56.468Z,35.78
2022-11-13T23:06:27.719Z,42.72
2022-11-13T23:08:56.769Z,43.95
2022-11-13T23:11:29.348Z,41.90
2022-11-13T23:14:02.088Z,40.88
2022-11-13T23:16:31.622Z,44.03
2022-11-13T23:19:00.995Z,39.97
2022-11-13T23:21:29.941Z,43.50
2022-11-13T23:23:59.109Z,41.40
2022-11-13T23:26:28.073Z,42.08
2022-11-13T23:28:56.616Z,39.03
2022-11-13T23:31:26.304Z,39.58
2022-11-13T23:33:54.456Z,45.85
2022-11-13T23:36:22.642Z,43.97
2022-11-13T23:38:51.060Z,42.47
2022-11-13T23:41:19.209Z,40.60
2022-11-13T23:44:07.545Z,41.03
2022-11-13T23:46:37.050Z,41.65
2022-11-13T23:49:05.198Z,39.55
2022-11-13T23:51:33.335Z,40.55
2022-11-13T23:54:01.767Z,37.28
2022-11-13T23:56:30.059Z,36.17
2022-11-13T23:58:58.163Z,36.25
